Time;durP1;ratioP1;P1;durP2;ratioP2;P2;SDS_P1;SDS_P2;PMS_P1;PMS_P2;Temp;Humidity;BMP_temperature;BMP_pressure;BME280_temperature;BME280_humidity;BME280_pressure;Samples;Min_cycle;Max_cycle;Signal;HPM_P1;HPM_P2
2020/12/21 00:59:06;;;;;;;7.83;4.50;;;6.20;99.90;;;;;;6240895;23;20068;-94
2020/12/21 01:01:32;;;;;;;6.73;4.30;;;6.20;99.90;;;;;;6255403;23;19992;-94
2020/12/21 01:04:00;;;;;;;7.23;4.27;;;6.20;99.90;;;;;;6244976;23;20016;-94
2020/12/21 01:06:26;;;;;;;8.60;4.63;;;6.20;99.90;;;;;;6246177;23;19991;-94
2020/12/21 01:08:52;;;;;;;8.87;4.40;;;6.20;99.90;;;;;;6246101;23;19984;-94
2020/12/21 01:11:17;;;;;;;7.27;4.43;;;6.20;99.90;;;;;;6246276;23;19995;-93
2020/12/21 01:13:46;;;;;;;6.80;4.00;;;6.30;99.90;;;;;;6246719;23;19996;-93
2020/12/21 01:16:12;;;;;;;8.77;3.60;;;6.20;99.90;;;;;;6246496;23;19999;-92
2020/12/21 01:18:38;;;;;;;8.67;4.00;;;6.30;99.90;;;;;;6245500;23;19988;-93
2020/12/21 01:21:04;;;;;;;5.93;3.60;;;6.30;99.90;;;;;;6245863;23;20020;-93
2020/12/21 01:23:29;;;;;;;5.83;3.47;;;6.30;99.90;;;;;;6243762;23;19988;-94
2020/12/21 01:25:55;;;;;;;6.83;3.43;;;6.30;99.90;;;;;;6246336;23;19995;-93
2020/12/21 01:28:21;;;;;;;7.77;4.90;;;6.30;99.90;;;;;;6248034;23;20004;-94
2020/12/21 01:30:46;;;;;;;8.70;4.53;;;6.20;99.90;;;;;;6247782;23;19985;-93
2020/12/21 01:33:12;;;;;;;6.93;4.80;;;6.20;99.90;;;;;;6247838;23;20008;-92
2020/12/21 01:35:39;;;;;;;8.43;5.07;;;6.20;99.90;;;;;;6247781;23;20004;-93
2020/12/21 01:38:05;;;;;;;8.73;5.70;;;6.20;99.90;;;;;;6247097;23;20379;-94
2020/12/21 01:40:31;;;;;;;9.53;5.67;;;6.20;99.90;;;;;;6247941;23;19999;-95
2020/12/21 01:42:57;;;;;;;11.97;6.83;;;6.20;99.90;;;;;;6247349;23;19988;-92
2020/12/21 01:45:23;;;;;;;8.60;6.20;;;6.20;99.90;;;;;;6247749;23;20060;-93
2020/12/21 01:47:49;;;;;;;8.70;6.30;;;6.10;99.90;;;;;;6248026;23;19984;-93
2020/12/21 01:50:14;;;;;;;11.20;5.93;;;6.00;99.90;;;;;;6247190;23;19991;-94
2020/12/21 01:52:41;;;;;;;9.30;5.80;;;6.00;99.90;;;;;;6247086;23;19991;-93
2020/12/21 01:55:07;;;;;;;7.77;5.40;;;6.00;99.90;;;;;;6247820;23;19984;-93
2020/12/21 01:57:33;;;;;;;8.97;5.83;;;5.90;99.90;;;;;;6247757;23;20004;-94
2020/12/21 02:00:08;;;;;;;10.00;5.20;;;5.90;99.90;;;;;;6247055;23;20196;-94
2020/12/21 02:02:38;;;;;;;8.80;5.47;;;5.80;99.90;;;;;;6247962;23;19988;-94
2020/12/21 02:05:04;;;;;;;7.27;4.90;;;5.80;99.90;;;;;;6248030;23;19996;-93
2020/12/21 02:07:30;;;;;;;10.00;6.03;;;5.70;99.90;;;;;;6247532;23;19984;-94
2020/12/21 02:09:57;;;;;;;10.77;6.37;;;5.60;99.90;;;;;;6247457;23;20003;-94
2020/12/21 02:12:23;;;;;;;11.00;6.63;;;5.60;99.90;;;;;;6247521;23;20003;-93
2020/12/21 02:14:49;;;;;;;11.97;7.47;;;5.50;99.90;;;;;;6247834;23;19989;-93
2020/12/21 02:17:15;;;;;;;13.50;7.40;;;5.40;99.90;;;;;;6247632;23;20039;-92
2020/12/21 02:19:41;;;;;;;15.23;7.43;;;5.30;99.90;;;;;;6247099;23;19991;-93
2020/12/21 02:22:07;;;;;;;12.57;7.73;;;5.40;99.90;;;;;;6247724;23;19984;-93
2020/12/21 02:24:33;;;;;;;14.23;7.67;;;5.30;99.90;;;;;;6240904;23;20060;-93
2020/12/21 02:26:58;;;;;;;10.93;6.83;;;5.30;99.90;;;;;;6248024;23;19984;-94
2020/12/21 02:29:24;;;;;;;10.60;6.83;;;5.30;99.90;;;;;;6246742;23;19985;-94
2020/12/21 02:31:49;;;;;;;10.67;7.00;;;5.20;99.90;;;;;;6247303;23;19984;-93
2020/12/21 02:34:19;;;;;;;13.63;7.37;;;5.10;99.90;;;;;;6246287;23;20016;-93
2020/12/21 02:36:45;;;;;;;11.30;6.20;;;5.10;99.90;;;;;;6247456;23;20032;-94
2020/12/21 02:39:11;;;;;;;10.73;6.90;;;5.10;99.90;;;;;;6247333;23;19999;-92
2020/12/21 02:41:37;;;;;;;11.50;7.43;;;5.10;99.90;;;;;;6247119;23;19994;-93
2020/12/21 02:44:02;;;;;;;12.57;7.20;;;5.10;99.90;;;;;;6247370;23;20012;-93
2020/12/21 02:46:28;;;;;;;11.57;7.87;;;5.10;99.90;;;;;;6247633;23;19991;-93
2020/12/21 02:48:53;;;;;;;10.40;6.87;;;5.10;99.90;;;;;;6246865;23;19987;-92
2020/12/21 02:51:19;;;;;;;11.00;7.27;;;5.10;99.90;;;;;;6247237;23;20035;-95
2020/12/21 02:53:45;;;;;;;10.57;6.93;;;5.10;99.90;;;;;;6247293;23;19988;-92
2020/12/21 02:56:11;;;;;;;9.67;6.50;;;5.10;99.90;;;;;;6247645;23;19994;-92
2020/12/21 02:58:38;;;;;;;10.73;6.63;;;5.10;99.90;;;;;;6246509;23;20003;-93
2020/12/21 03:01:04;;;;;;;10.20;6.77;;;5.00;99.90;;;;;;6246782;23;19988;-93
2020/12/21 03:03:30;;;;;;;10.63;6.73;;;5.00;99.90;;;;;;6246755;23;19992;-94
2020/12/21 03:05:55;;;;;;;10.67;6.93;;;4.90;99.90;;;;;;6247462;23;20039;-93
2020/12/21 03:08:21;;;;;;;11.30;7.33;;;4.90;99.90;;;;;;6247006;23;19984;-95
2020/12/21 03:10:47;;;;;;;10.83;6.83;;;5.00;99.90;;;;;;6246065;23;20036;-95
2020/12/21 03:13:12;;;;;;;11.03;7.20;;;4.90;99.90;;;;;;6247122;23;19984;-94
2020/12/21 03:15:38;;;;;;;13.00;7.70;;;4.90;99.90;;;;;;6247368;23;19991;-96
2020/12/21 03:18:04;;;;;;;12.53;6.93;;;4.90;99.90;;;;;;6246527;23;19988;-93
2020/12/21 03:20:30;;;;;;;12.63;8.37;;;4.80;99.90;;;;;;6245366;23;19988;-94
2020/12/21 03:22:55;;;;;;;14.73;9.67;;;4.80;99.90;;;;;;6246835;23;20133;-93
2020/12/21 03:25:21;;;;;;;16.20;10.03;;;4.80;99.90;;;;;;6245694;23;20046;-93
2020/12/21 03:27:46;;;;;;;16.43;11.03;;;4.80;99.90;;;;;;6246819;23;19984;-92
2020/12/21 03:30:12;;;;;;;16.77;10.90;;;4.80;99.90;;;;;;6245145;23;19985;-93
2020/12/21 03:32:38;;;;;;;16.73;11.30;;;4.70;99.90;;;;;;6246439;23;19988;-93
2020/12/21 03:35:06;;;;;;;17.97;11.40;;;4.70;99.90;;;;;;6247439;23;20007;-94
2020/12/21 03:37:32;;;;;;;19.23;12.07;;;4.70;99.90;;;;;;6242610;23;19999;-93
2020/12/21 03:40:02;;;;;;;17.20;11.53;;;4.60;99.90;;;;;;6247009;23;20044;-94
2020/12/21 03:42:27;;;;;;;19.83;12.27;;;4.60;99.90;;;;;;6246586;23;20004;-95
2020/12/21 03:44:53;;;;;;;16.63;10.33;;;4.60;99.90;;;;;;6245882;23;19999;-93
2020/12/21 03:47:19;;;;;;;16.50;10.70;;;4.50;99.90;;;;;;6247451;23;19980;-95
2020/12/21 03:49:44;;;;;;;15.30;9.90;;;4.50;99.90;;;;;;6245614;23;20036;-93
2020/12/21 03:52:10;;;;;;;16.57;10.30;;;4.50;99.90;;;;;;6247057;23;19991;-94
2020/12/21 03:54:36;;;;;;;15.07;9.90;;;4.50;99.90;;;;;;6242515;23;19985;-94
2020/12/21 03:57:01;;;;;;;14.03;9.60;;;4.40;99.90;;;;;;6247196;23;19987;-93
2020/12/21 03:59:27;;;;;;;13.17;8.60;;;4.40;99.90;;;;;;6246586;23;20019;-94
2020/12/21 04:01:53;;;;;;;14.93;9.30;;;4.40;99.90;;;;;;6246862;23;20044;-93
2020/12/21 04:04:18;;;;;;;14.57;9.33;;;4.40;99.90;;;;;;6247133;23;19994;-93
2020/12/21 04:06:44;;;;;;;13.60;8.13;;;4.30;99.90;;;;;;6247997;23;19985;-93
2020/12/21 04:09:10;;;;;;;14.27;8.67;;;4.30;99.90;;;;;;6247571;23;19999;-93
2020/12/21 04:11:35;;;;;;;15.30;9.17;;;4.30;99.90;;;;;;6247998;23;19980;-93
2020/12/21 04:14:01;;;;;;;14.77;9.50;;;4.30;99.90;;;;;;6247416;23;20008;-92
2020/12/21 04:16:26;;;;;;;17.67;10.80;;;4.20;99.90;;;;;;6247186;23;20064;-93
2020/12/21 04:18:52;;;;;;;15.70;9.10;;;4.20;99.90;;;;;;6246625;23;20166;-93
2020/12/21 04:21:18;;;;;;;14.37;9.40;;;4.20;99.90;;;;;;6246054;23;19984;-93
2020/12/21 04:23:44;;;;;;;16.63;9.43;;;4.20;99.90;;;;;;6244796;23;20044;-93
2020/12/21 04:26:10;;;;;;;14.77;9.53;;;4.30;99.90;;;;;;6246673;23;19984;-92
2020/12/21 04:28:42;;;;;;;14.10;9.37;;;4.20;99.90;;;;;;6246351;23;19980;-93
2020/12/21 04:31:08;;;;;;;15.50;9.75;;;4.20;99.90;;;;;;6246011;23;19981;-91
2020/12/21 04:33:34;;;;;;;15.50;9.77;;;4.20;99.90;;;;;;6243274;23;19986;-94
2020/12/21 04:36:00;;;;;;;17.97;9.70;;;4.20;99.90;;;;;;6245741;23;19994;-93
2020/12/21 04:38:26;;;;;;;15.10;9.60;;;4.20;99.90;;;;;;6245331;23;20003;-93
2020/12/21 04:40:56;;;;;;;16.13;10.73;;;4.10;99.90;;;;;;6246999;23;19988;-94
2020/12/21 04:43:23;;;;;;;18.83;10.13;;;4.20;99.90;;;;;;6246194;23;20000;-94
2020/12/21 04:46:01;;;;;;;16.90;11.37;;;4.20;99.90;;;;;;6246677;23;20004;-93
2020/12/21 04:48:29;;;;;;;18.00;10.70;;;4.20;99.90;;;;;;6246236;23;20015;-92
2020/12/21 04:50:56;;;;;;;17.37;10.47;;;4.20;99.90;;;;;;6246117;23;19980;-93
2020/12/21 04:53:23;;;;;;;16.33;10.53;;;4.30;99.90;;;;;;6245579;23;20043;-92
2020/12/21 04:55:49;;;;;;;17.90;10.87;;;4.30;99.90;;;;;;6247854;23;19988;-93
2020/12/21 04:58:16;;;;;;;14.47;10.70;;;4.20;99.90;;;;;;6247680;23;19998;-93
2020/12/21 05:00:42;;;;;;;16.37;11.10;;;4.30;99.90;;;;;;6248327;23;19988;-95
2020/12/21 05:03:11;;;;;;;16.87;10.00;;;4.20;99.90;;;;;;6248332;23;20044;-92
2020/12/21 05:05:39;;;;;;;16.97;10.03;;;4.20;99.90;;;;;;6248836;23;19992;-92
2020/12/21 05:08:14;;;;;;;20.87;9.63;;;4.20;99.90;;;;;;6242144;23;19995;-93
2020/12/21 05:10:43;;;;;;;15.40;9.73;;;4.00;99.90;;;;;;6248302;23;20036;-93
2020/12/21 05:13:10;;;;;;;14.47;8.97;;;3.90;99.90;;;;;;6248071;23;20003;-94
2020/12/21 05:15:36;;;;;;;14.20;9.27;;;3.90;99.90;;;;;;6248064;23;19995;-92
2020/12/21 05:18:07;;;;;;;13.87;9.27;;;3.90;99.90;;;;;;6248125;23;19984;-94
2020/12/21 05:20:36;;;;;;;13.67;9.47;;;3.80;99.90;;;;;;6248114;23;19988;-93
2020/12/21 05:23:14;;;;;;;14.13;8.60;;;3.90;99.90;;;;;;6247741;23;20006;-94
2020/12/21 05:25:40;;;;;;;14.17;9.20;;;3.80;99.90;;;;;;6274453;23;19999;-93
2020/12/21 05:28:11;;;;;;;13.87;9.00;;;3.90;99.90;;;;;;6248176;23;20004;-94
2020/12/21 05:30:49;;;;;;;29.23;11.20;;;3.90;99.90;;;;;;6247858;23;19984;-93
2020/12/21 05:33:15;;;;;;;18.70;10.47;;;3.90;99.90;;;;;;6249082;23;19988;-93
2020/12/21 05:35:41;;;;;;;19.93;11.30;;;3.90;99.90;;;;;;6245695;23;19998;-93
2020/12/21 05:38:06;;;;;;;23.40;11.33;;;4.00;99.90;;;;;;6248802;23;19988;-93
2020/12/21 05:40:32;;;;;;;21.10;11.17;;;3.90;99.90;;;;;;6250006;23;20011;-92
2020/12/21 05:42:58;;;;;;;46.00;12.47;;;4.00;99.90;;;;;;6249244;23;19988;-93
2020/12/21 05:45:23;;;;;;;21.43;11.67;;;4.00;99.90;;;;;;6248782;23;20011;-93
2020/12/21 05:47:53;;;;;;;19.40;11.03;;;4.00;99.90;;;;;;6246297;23;20004;-93
2020/12/21 05:50:21;;;;;;;17.60;9.73;;;4.00;99.90;;;;;;6247432;23;20004;-93
2020/12/21 05:52:52;;;;;;;18.67;10.77;;;4.00;99.90;;;;;;6248044;23;19988;-94
2020/12/21 05:55:21;;;;;;;20.35;11.73;;;4.00;99.90;;;;;;6247809;23;19988;-93
2020/12/21 05:57:49;;;;;;;20.77;10.90;;;4.00;99.90;;;;;;6248267;23;20027;-93
2020/12/21 06:00:15;;;;;;;16.30;10.70;;;4.00;99.90;;;;;;6247444;23;19991;-91
2020/12/21 06:02:41;;;;;;;16.97;10.37;;;4.00;99.90;;;;;;6247898;23;20044;-95
2020/12/21 06:05:09;;;;;;;17.70;11.00;;;4.00;99.90;;;;;;6247793;23;19995;-92
2020/12/21 06:07:36;;;;;;;15.17;10.00;;;4.00;99.90;;;;;;6247924;23;20015;-92
2020/12/21 06:10:08;;;;;;;15.70;10.47;;;4.00;99.90;;;;;;6247570;23;19984;-92
2020/12/21 06:12:54;;;;;;;;;;;4.00;99.90;;;;;;6248027;23;19996;-93
2020/12/21 06:15:24;;;;;;;15.27;9.87;;;4.00;99.90;;;;;;6247001;23;19884;-93
2020/12/21 06:17:50;;;;;;;16.07;10.47;;;4.00;99.90;;;;;;6247824;23;19984;-95
2020/12/21 06:20:15;;;;;;;16.40;10.53;;;4.10;99.90;;;;;;6246990;23;20011;-94
2020/12/21 06:22:41;;;;;;;12.97;8.93;;;4.00;99.90;;;;;;6246701;23;19988;-92
2020/12/21 06:25:08;;;;;;;14.47;9.27;;;4.00;99.90;;;;;;6273393;23;19983;-95
2020/12/21 06:27:41;;;;;;;22.87;10.00;;;3.90;99.90;;;;;;6247559;23;19992;-93
2020/12/21 06:30:23;;;;;;;31.40;10.33;;;3.90;99.90;;;;;;6245938;22;20019;-95
2020/12/21 06:45:46;;;;;;;44.37;8.97;;;3.90;99.90;;;;;;6228452;22;20012;-92
2020/12/21 06:48:42;;;;;;;28.43;8.07;;;3.90;99.90;;;;;;6209631;22;20008;-91
2020/12/21 06:51:36;;;;;;;21.73;7.97;;;3.90;99.90;;;;;;6222963;22;19993;-91
2020/12/21 06:54:05;;;;;;;14.40;7.77;;;3.90;99.90;;;;;;6231171;22;19992;-93
2020/12/21 07:01:38;;;;;;;12.00;7.73;;;3.90;99.90;;;;;;6207178;23;20020;-93
2020/12/21 07:04:08;;;;;;;10.73;7.57;;;4.10;99.90;;;;;;6214110;23;20004;-92
2020/12/21 07:06:46;;;;;;;50.90;9.17;;;4.00;99.90;;;;;;6211866;23;20070;-94
2020/12/21 07:09:53;;;;;;;19.63;7.73;;;4.00;99.90;;;;;;6214195;23;20000;-92
2020/12/21 07:40:49;;;;;;;14.77;8.23;;;4.00;99.90;;;;;;6185300;23;20065;-93
2020/12/21 07:43:24;;;;;;;15.37;8.30;;;4.00;99.90;;;;;;6209731;23;19989;-93
2020/12/21 07:45:52;;;;;;;14.63;8.70;;;4.00;99.90;;;;;;6215684;23;20087;-95
2020/12/21 07:48:18;;;;;;;10.70;7.70;;;4.00;99.90;;;;;;6215288;23;19980;-93
2020/12/21 07:50:45;;;;;;;10.83;6.97;;;4.00;99.90;;;;;;6215214;23;19980;-92
2020/12/21 07:53:12;;;;;;;12.70;7.90;;;3.90;99.90;;;;;;6215199;23;19988;-93
2020/12/21 07:55:37;;;;;;;10.47;7.63;;;3.90;99.90;;;;;;6215732;23;19985;-94
2020/12/21 07:58:14;;;;;;;10.50;7.37;;;3.90;99.90;;;;;;6214920;23;19991;-92
2020/12/21 08:01:22;;;;;;;;;;;;;;;;;;;;;
2020/12/21 08:03:52;;;;;;;13.83;9.33;;;3.80;99.90;;;;;;6240933;23;19992;-94
2020/12/21 08:06:22;;;;;;;14.90;9.67;;;3.80;99.90;;;;;;6215003;23;20048;-93
2020/12/21 08:08:50;;;;;;;13.17;9.40;;;3.80;99.90;;;;;;6263634;23;19989;-93
2020/12/21 08:11:18;;;;;;;18.30;9.37;;;3.70;99.90;;;;;;6214870;23;20036;-93
2020/12/21 08:13:53;;;;;;;14.50;9.73;;;3.80;99.90;;;;;;6215432;23;19984;-94
2020/12/21 08:16:25;;;;;;;17.93;9.73;;;3.60;99.90;;;;;;6215454;23;20040;-94
2020/12/21 08:18:52;;;;;;;18.60;11.13;;;3.70;99.90;;;;;;6214088;23;19988;-94
2020/12/21 08:21:24;;;;;;;17.60;11.03;;;3.70;99.90;;;;;;6214210;23;19993;-92
2020/12/21 08:23:52;;;;;;;15.77;9.88;;;3.80;99.90;;;;;;6212374;23;20005;-90
2020/12/21 08:26:18;;;;;;;14.67;9.90;;;3.80;99.90;;;;;;6210255;23;20009;-92
2020/12/21 08:28:43;;;;;;;14.73;9.73;;;3.80;99.90;;;;;;6260224;22;20012;-92
2020/12/21 08:31:18;;;;;;;14.37;9.50;;;3.90;99.90;;;;;;6261255;22;20008;-91
2020/12/21 08:34:04;;;;;;;14.07;8.97;;;4.00;99.90;;;;;;6212532;23;20012;-91
2020/12/21 08:36:38;;;;;;;16.00;10.23;;;4.00;99.90;;;;;;6239391;23;20004;-92
2020/12/21 08:39:14;;;;;;;13.70;8.87;;;4.00;99.90;;;;;;6210130;23;19996;-92
2020/12/21 08:44:25;;;;;;;13.93;10.03;;;4.10;99.90;;;;;;6179733;23;20021;-89
2020/12/21 08:46:53;;;;;;;15.93;10.20;;;4.10;99.90;;;;;;6154623;23;20009;-89
2020/12/21 08:49:20;;;;;;;14.67;9.83;;;4.20;99.90;;;;;;6154132;23;20005;-89
2020/12/21 08:51:46;;;;;;;14.20;8.43;;;4.20;99.90;;;;;;6171922;23;20036;-87
2020/12/21 08:54:12;;;;;;;14.73;9.60;;;4.30;99.90;;;;;;6185427;23;20449;-90
2020/12/21 08:56:59;;;;;;;14.20;8.80;;;4.30;99.90;;;;;;6185235;23;20090;-86
2020/12/21 08:59:25;;;;;;;12.53;8.27;;;4.30;99.90;;;;;;6185467;23;20004;-87
2020/12/21 09:01:51;;;;;;;13.90;9.60;;;4.40;99.90;;;;;;6185782;23;20434;-90
2020/12/21 09:04:17;;;;;;;13.10;8.13;;;4.40;99.90;;;;;;6212007;23;20005;-89
2020/12/21 09:06:43;;;;;;;13.80;8.77;;;4.50;99.90;;;;;;6185467;23;20009;-88
2020/12/21 09:09:10;;;;;;;11.80;7.77;;;4.50;99.90;;;;;;6184807;23;20399;-88
2020/12/21 09:11:36;;;;;;;12.50;8.13;;;4.60;99.90;;;;;;6184547;23;20004;-88
2020/12/21 09:14:02;;;;;;;12.90;8.23;;;4.60;99.90;;;;;;6195889;23;20003;-88
2020/12/21 09:16:29;;;;;;;13.93;8.27;;;4.70;99.90;;;;;;6201297;23;20458;-89
2020/12/21 09:18:56;;;;;;;11.40;8.20;;;4.70;99.90;;;;;;6185846;23;20005;-88
2020/12/21 09:21:30;;;;;;;12.57;8.37;;;4.70;99.90;;;;;;6205369;23;20012;-88
2020/12/21 09:24:02;;;;;;;12.57;8.17;;;4.80;99.90;;;;;;6196068;23;20009;-88
2020/12/21 09:26:28;;;;;;;12.52;8.13;;;4.80;99.90;;;;;;6186007;23;20059;-88
2020/12/21 09:29:01;;;;;;;13.93;8.67;;;4.90;99.90;;;;;;6183800;23;20011;-87
2020/12/21 09:31:26;;;;;;;19.33;8.10;;;5.00;99.90;;;;;;6184533;23;20402;-88
2020/12/21 09:33:53;;;;;;;19.00;8.70;;;5.00;99.90;;;;;;6185212;23;20036;-88
2020/12/21 09:36:20;;;;;;;13.23;7.97;;;5.00;99.90;;;;;;6186069;23;20004;-88
2020/12/21 09:38:48;;;;;;;16.23;7.90;;;5.00;99.90;;;;;;6183829;23;20008;-87
2020/12/21 09:41:19;;;;;;;20.30;8.37;;;5.00;99.90;;;;;;6184763;23;20013;-88
2020/12/21 09:43:48;;;;;;;17.45;7.90;;;5.00;99.90;;;;;;6183891;23;20128;-88
2020/12/21 09:46:21;;;;;;;19.47;8.60;;;5.10;99.90;;;;;;6212202;23;20576;-89
2020/12/21 09:48:47;;;;;;;15.40;8.50;;;5.00;99.90;;;;;;6184249;23;20115;-89
2020/12/21 09:51:13;;;;;;;14.30;8.37;;;5.10;99.90;;;;;;6185039;23;20005;-89
2020/12/21 09:53:39;;;;;;;17.60;8.70;;;5.10;99.90;;;;;;6185189;23;20507;-89
2020/12/21 09:56:07;;;;;;;13.97;8.53;;;5.10;99.90;;;;;;6185111;23;20009;-89
2020/12/21 09:58:33;;;;;;;17.30;9.27;;;5.20;99.90;;;;;;6184599;23;20005;-89
2020/12/21 10:00:59;;;;;;;20.27;8.57;;;5.20;99.90;;;;;;6186846;23;20000;-92
2020/12/21 10:03:24;;;;;;;23.27;8.17;;;5.40;99.90;;;;;;6185030;23;20392;-90
2020/12/21 10:05:50;;;;;;;16.80;8.97;;;5.40;99.90;;;;;;6185553;23;20375;-88
2020/12/21 10:08:16;;;;;;;20.67;9.27;;;5.40;99.90;;;;;;6184152;23;20035;-89
2020/12/21 10:10:41;;;;;;;15.47;8.17;;;5.50;99.90;;;;;;6182793;23;19997;-87
2020/12/21 10:13:07;;;;;;;17.77;8.53;;;5.50;99.90;;;;;;6185070;23;20100;-87
2020/12/21 10:15:32;;;;;;;15.80;8.77;;;5.50;99.90;;;;;;6185919;23;20040;-87
2020/12/21 10:17:58;;;;;;;12.97;8.43;;;5.60;99.90;;;;;;6184041;23;20150;-87
2020/12/21 10:20:24;;;;;;;14.57;8.23;;;5.60;99.90;;;;;;6183891;23;20005;-88
2020/12/21 10:22:51;;;;;;;16.57;8.43;;;5.70;99.90;;;;;;6211272;23;20005;-87
2020/12/21 10:25:16;;;;;;;16.50;8.90;;;5.80;99.90;;;;;;6185664;23;20039;-88
2020/12/21 10:27:42;;;;;;;15.83;8.87;;;5.80;99.90;;;;;;6211965;23;20676;-87
2020/12/21 10:30:08;;;;;;;12.50;8.73;;;5.90;99.90;;;;;;6212538;23;20004;-87
2020/12/21 10:32:33;;;;;;;11.77;8.43;;;5.90;99.90;;;;;;6186047;23;20028;-87
2020/12/21 10:34:59;;;;;;;12.93;8.50;;;5.90;99.90;;;;;;6185051;23;20004;-87
2020/12/21 10:37:25;;;;;;;13.13;8.17;;;5.90;99.90;;;;;;6185166;23;20016;-88
2020/12/21 10:39:50;;;;;;;13.30;8.63;;;5.90;99.90;;;;;;6184038;23;20091;-88
2020/12/21 10:42:18;;;;;;;14.33;9.43;;;5.90;99.90;;;;;;6183448;23;20075;-86
2020/12/21 10:44:44;;;;;;;13.70;8.77;;;5.90;99.90;;;;;;6184321;23;20439;-88
2020/12/21 10:47:09;;;;;;;14.10;8.77;;;5.90;99.90;;;;;;6184746;23;20012;-86
2020/12/21 10:49:35;;;;;;;12.77;9.00;;;5.80;99.90;;;;;;6183254;23;20024;-88
2020/12/21 10:52:01;;;;;;;12.60;8.93;;;5.90;99.90;;;;;;6183926;23;20008;-88
2020/12/21 10:54:27;;;;;;;14.83;8.50;;;5.80;99.90;;;;;;6183782;23;20335;-88
2020/12/21 10:56:52;;;;;;;14.97;9.83;;;5.80;99.90;;;;;;6210758;23;20008;-88
2020/12/21 10:59:18;;;;;;;13.83;9.17;;;5.80;99.90;;;;;;6186808;23;20486;-88
2020/12/21 11:01:47;;;;;;;13.00;8.53;;;5.80;99.90;;;;;;6187482;23;20014;-87
2020/12/21 11:04:13;;;;;;;13.73;7.93;;;5.90;99.90;;;;;;6185661;23;20009;-88
2020/12/21 11:06:39;;;;;;;12.30;8.03;;;5.80;99.90;;;;;;6184897;23;20016;-88
2020/12/21 11:09:05;;;;;;;12.40;8.00;;;5.90;99.90;;;;;;6182660;23;20403;-87
2020/12/21 11:11:31;;;;;;;13.97;7.70;;;5.90;99.90;;;;;;6183421;23;20051;-88
2020/12/21 11:13:59;;;;;;;14.67;8.30;;;6.00;99.90;;;;;;6183915;23;20014;-88
2020/12/21 11:16:25;;;;;;;14.17;7.43;;;6.10;99.90;;;;;;6184845;23;20097;-87
2020/12/21 11:18:51;;;;;;;14.13;7.80;;;6.10;99.90;;;;;;6183232;23;20036;-88
2020/12/21 11:21:17;;;;;;;14.57;7.40;;;6.20;99.90;;;;;;6182248;23;20132;-87
2020/12/21 11:23:43;;;;;;;15.63;8.20;;;6.20;99.90;;;;;;6174140;23;20432;-87
2020/12/21 11:26:09;;;;;;;10.43;7.53;;;6.10;99.90;;;;;;6208176;23;20003;-88
2020/12/21 11:28:35;;;;;;;12.03;7.47;;;6.20;99.90;;;;;;6195632;23;19989;-87
2020/12/21 11:31:02;;;;;;;12.47;7.50;;;6.20;99.90;;;;;;6207163;23;20013;-88
2020/12/21 11:33:27;;;;;;;12.37;7.07;;;6.20;99.90;;;;;;6198679;23;20016;-88
2020/12/21 11:35:53;;;;;;;13.30;6.60;;;6.30;99.90;;;;;;6214603;23;20008;-87
2020/12/21 11:38:18;;;;;;;11.03;7.97;;;6.40;99.90;;;;;;6212920;23;19996;-91
2020/12/21 11:40:47;;;;;;;10.97;6.70;;;6.40;99.90;;;;;;6189986;23;20004;-92
2020/12/21 11:43:14;;;;;;;11.30;6.67;;;6.50;99.90;;;;;;6193189;23;20027;-89
2020/12/21 11:45:41;;;;;;;16.83;7.03;;;6.50;99.90;;;;;;6196285;23;20000;-91
2020/12/21 11:51:57;;;;;;;10.90;6.85;;;6.50;99.90;;;;;;6221021;23;19999;-90
2020/12/21 11:54:23;;;;;;;14.77;8.27;;;6.50;99.90;;;;;;6218732;23;20059;-90
2020/12/21 11:56:53;;;;;;;14.40;8.63;;;6.50;99.90;;;;;;6195889;23;20012;-93
2020/12/21 12:36:09;;;;;;;8.20;3.97;;;7.20;99.90;;;;;;6194042;23;20035;-90
2020/12/21 12:41:39;;;;;;;7.87;3.83;;;7.30;99.90;;;;;;6226514;23;20066;-89
2020/12/21 12:44:21;;;;;;;8.17;4.47;;;7.30;99.90;;;;;;6219217;23;20012;-89
2020/12/21 12:47:27;;;;;;;8.93;3.45;;;7.50;99.90;;;;;;6216874;23;20092;-89
2020/12/21 12:50:14;;;;;;;7.37;3.47;;;7.60;99.90;;;;;;6221920;23;20000;-91
2020/12/21 12:53:03;;;;;;;7.60;3.37;;;7.70;99.90;;;;;;6210334;23;20012;-92
2020/12/21 12:55:44;;;;;;;7.27;3.00;;;7.80;99.90;;;;;;6247943;23;20008;-92
2020/12/21 12:58:25;;;;;;;6.82;3.05;;;7.90;99.90;;;;;;6220348;23;20357;-90
2020/12/21 13:01:12;;;;;;;7.82;2.95;;;8.00;99.90;;;;;;6218925;23;20004;-91
2020/12/21 13:03:48;;;;;;;5.63;2.87;;;8.00;99.90;;;;;;6219708;23;20026;-91
2020/12/21 13:06:43;;;;;;;;;;;;;;;;;;;;;
2020/12/21 13:09:15;;;;;;;8.80;2.83;;;8.20;99.90;;;;;;6250008;23;20024;-91
2020/12/21 13:14:37;;;;;;;8.33;3.83;;;8.20;99.90;;;;;;6246386;23;20000;-91
2020/12/21 13:17:11;;;;;;;6.07;3.33;;;8.20;99.90;;;;;;6221298;23;20004;-91
2020/12/21 13:19:43;;;;;;;10.33;5.20;;;8.10;99.90;;;;;;6220371;23;20008;-93
2020/12/21 13:22:11;;;;;;;11.13;5.60;;;8.00;99.90;;;;;;6219239;23;20079;-92
2020/12/21 13:24:37;;;;;;;9.73;5.90;;;8.00;99.90;;;;;;6245115;23;20004;-92
2020/12/21 13:28:07;;;;;;;11.97;5.67;;;7.90;99.90;;;;;;6247708;23;20080;-94
2020/12/21 13:30:51;;;;;;;;;;;;;;;;;;;;;
2020/12/21 13:33:29;;;;;;;9.03;5.67;;;7.70;99.90;;;;;;6261193;22;20028;-96
2020/12/21 15:55:39;;;;;;;9.07;4.47;;;6.80;99.90;;;;;;6214342;23;20250;-93
2020/12/21 15:58:10;;;;;;;7.27;4.30;;;6.90;99.90;;;;;;6188493;23;20342;-93
2020/12/21 16:00:36;;;;;;;9.13;4.10;;;6.80;99.90;;;;;;6193305;23;20617;-93
2020/12/21 16:03:02;;;;;;;8.07;4.53;;;6.90;99.90;;;;;;6193579;23;20016;-92
2020/12/21 16:47:43;;;;;;;10.37;5.07;;;7.30;99.90;;;;;;6200097;23;20028;-90
2020/12/21 16:50:08;;;;;;;11.47;5.17;;;7.20;99.90;;;;;;6185524;23;20036;-89
2020/12/21 16:52:39;;;;;;;9.13;5.80;;;7.20;99.90;;;;;;6215374;23;20032;-90
2020/12/21 16:55:33;;;;;;;9.40;4.63;;;7.20;99.90;;;;;;6226667;23;20076;-90
2020/12/21 16:58:26;;;;;;;9.20;5.07;;;7.20;99.90;;;;;;6219076;23;20004;-90
2020/12/21 17:00:53;;;;;;;9.37;5.13;;;7.10;99.90;;;;;;6214750;23;19996;-89
2020/12/21 17:03:20;;;;;;;9.77;5.53;;;7.00;99.90;;;;;;6244383;23;20450;-89
2020/12/21 17:05:46;;;;;;;8.27;5.20;;;7.10;99.90;;;;;;6218450;23;20008;-88
2020/12/21 17:08:14;;;;;;;8.13;5.13;;;7.10;99.90;;;;;;6217678;23;20051;-89
2020/12/21 17:10:46;;;;;;;10.47;5.33;;;7.10;99.90;;;;;;6218360;23;20035;-89
2020/12/21 17:13:20;;;;;;;9.55;5.43;;;7.10;99.90;;;;;;6217553;23;20015;-88
2020/12/21 17:15:49;;;;;;;9.57;5.63;;;7.10;99.90;;;;;;6244589;23;20007;-90
2020/12/21 17:18:15;;;;;;;8.07;5.60;;;7.10;99.90;;;;;;6218701;23;20011;-91
2020/12/21 17:21:06;;;;;;;9.57;5.30;;;7.10;99.90;;;;;;6218274;23;20004;-90
2020/12/21 17:23:32;;;;;;;12.50;6.30;;;7.20;99.90;;;;;;6218330;23;20035;-91
2020/12/21 17:26:09;;;;;;;10.00;5.60;;;7.20;99.90;;;;;;6218802;23;20011;-91
2020/12/21 17:28:38;;;;;;;8.40;5.53;;;7.10;99.90;;;;;;6218179;23;20031;-91
2020/12/21 17:31:18;;;;;;;10.33;6.23;;;7.10;99.90;;;;;;6218485;23;20439;-90
2020/12/21 17:34:09;;;;;;;;;;;;;;;;;;;;;
2020/12/21 17:36:40;;;;;;;8.83;5.03;;;7.10;99.90;;;;;;6237951;23;20075;-90
2020/12/21 17:39:14;;;;;;;9.40;5.35;;;7.10;99.90;;;;;;6214765;23;20019;-93
2020/12/21 17:41:40;;;;;;;10.87;6.17;;;7.10;99.90;;;;;;6226213;23;20070;-89
2020/12/21 17:44:06;;;;;;;9.27;5.77;;;7.10;99.90;;;;;;6215087;23;20019;-89
2020/12/21 17:46:52;;;;;;;12.37;6.33;;;7.20;99.90;;;;;;6214600;23;20079;-90
2020/12/21 20:06:03;;;;;;;8.27;4.43;;;7.30;99.90;;;;;;6174912;23;20008;-94
2020/12/21 20:08:32;;;;;;;9.67;4.50;;;7.30;99.90;;;;;;6214185;23;19996;-92
2020/12/21 20:47:14;;;;;;;11.13;5.97;;;7.30;99.90;;;;;;6191306;23;20015;-91
2020/12/21 20:49:42;;;;;;;11.10;5.97;;;7.40;99.90;;;;;;6177761;23;20016;-93
2020/12/21 20:52:14;;;;;;;9.60;5.63;;;7.40;99.90;;;;;;6206324;23;19997;-95
2020/12/21 20:54:39;;;;;;;9.27;5.80;;;7.40;99.90;;;;;;6215540;23;19993;-95
2020/12/21 20:57:06;;;;;;;10.50;6.23;;;7.40;99.90;;;;;;6216083;23;20036;-93
2020/12/21 21:02:09;;;;;;;9.50;5.23;;;7.50;99.90;;;;;;6222866;23;20023;-93
2020/12/21 21:04:42;;;;;;;10.60;5.83;;;7.50;99.90;;;;;;6241759;23;19988;-93
2020/12/21 21:07:10;;;;;;;8.67;5.30;;;7.50;99.90;;;;;;6236253;22;20048;-93
2020/12/21 21:09:36;;;;;;;12.53;6.27;;;7.50;99.90;;;;;;6238489;22;20001;-93
2020/12/21 21:33:39;;;;;;;8.13;4.80;;;7.70;99.90;;;;;;6241470;23;20011;-95
2020/12/21 21:39:16;;;;;;;8.23;4.80;;;7.80;99.90;;;;;;6148830;23;19998;-96
2020/12/21 23:17:28;;;;;;;6.87;2.97;;;8.30;99.90;;;;;;6222601;23;20043;-92
2020/12/21 23:19:55;;;;;;;6.67;3.00;;;8.30;99.90;;;;;;6196286;23;20040;-93
2020/12/21 23:22:25;;;;;;;4.60;2.43;;;8.30;99.90;;;;;;6215371;23;20009;-93
2020/12/21 23:24:55;;;;;;;4.57;2.37;;;8.40;99.90;;;;;;6222796;23;20004;-92
2020/12/21 23:27:29;;;;;;;4.67;2.53;;;8.40;99.90;;;;;;6223665;23;20004;-93
2020/12/21 23:30:01;;;;;;;4.67;2.40;;;8.40;99.90;;;;;;6236077;23;20000;-91
2020/12/21 23:32:34;;;;;;;4.40;2.13;;;8.40;99.90;;;;;;6244438;22;20003;-91
2020/12/21 23:35:04;;;;;;;5.53;2.17;;;8.50;99.90;;;;;;6235582;23;20438;-92